Time;durP1;ratioP1;P1;durP2;ratioP2;P2;SDS_P1;SDS_P2;PMS_P1;PMS_P2;Temp;Humidity;BMP_temperature;BMP_pressure;BME280_temperature;BME280_humidity;BME280_pressure;Samples;Min_cycle;Max_cycle;Signal;HPM_P1;HPM_P2
2022/12/19 00:00:13;;;;;;;;;;;0.90;99.90;;;;;;5048470;28;19931;-64
2022/12/19 00:02:42;;;;;;;;;;;0.90;99.90;;;;;;5049772;28;19924;-64
2022/12/19 00:05:12;;;;;;;;;;;1.20;99.90;;;;;;5059577;28;20015;-63
2022/12/19 00:07:40;;;;;;;;;;;1.50;99.90;;;;;;5044419;28;19931;-64
2022/12/19 00:10:08;;;;;;;;;;;1.50;99.90;;;;;;5046572;28;19925;-63
2022/12/19 00:12:36;;;;;;;;;;;1.60;99.90;;;;;;5049412;28;20345;-63
2022/12/19 00:15:06;;;;;;;;;;;1.30;99.90;;;;;;5046549;28;19925;-63
2022/12/19 00:17:34;;;;;;;;;;;1.40;99.90;;;;;;5049723;28;19932;-64
2022/12/19 00:20:04;;;;;;;;;;;1.60;99.90;;;;;;5047431;28;19967;-64
2022/12/19 00:22:31;;;;;;;;;;;1.70;99.90;;;;;;5050288;28;19925;-63
2022/12/19 00:25:03;;;;;;;;;;;1.70;99.90;;;;;;5050062;28;19932;-62
2022/12/19 00:27:33;;;;;;;;;;;1.70;99.90;;;;;;5048997;28;19995;-64
2022/12/19 00:30:01;;;;;;;;;;;1.50;99.90;;;;;;5049398;28;19933;-63
2022/12/19 00:32:30;;;;;;;;;;;1.30;99.90;;;;;;5051348;28;19932;-64
2022/12/19 00:34:58;;;;;;;;;;;1.30;99.90;;;;;;5057556;28;20257;-64
2022/12/19 00:37:27;;;;;;;;;;;1.50;99.90;;;;;;5062941;28;20404;-63
2022/12/19 00:39:55;;;;;;;;;;;1.60;99.90;;;;;;5051631;28;20363;-64
2022/12/19 00:42:23;;;;;;;;;;;1.60;99.90;;;;;;5050061;28;19931;-63
2022/12/19 00:44:51;;;;;;;;;;;1.80;99.90;;;;;;5046577;28;19924;-62
2022/12/19 00:47:18;;;;;;;;;;;1.90;99.90;;;;;;5049002;28;20397;-62
2022/12/19 00:49:50;;;;;;;;;;;1.90;99.90;;;;;;5048848;28;20379;-63
2022/12/19 00:52:18;;;;;;;;;;;1.90;99.90;;;;;;5048309;28;19926;-63
2022/12/19 00:54:46;;;;;;;;;;;1.70;99.90;;;;;;5047144;28;19931;-63
2022/12/19 00:57:14;;;;;;;;;;;1.60;99.90;;;;;;5049579;28;19933;-63
2022/12/19 00:59:41;;;;;;;;;;;1.60;99.90;;;;;;5051294;28;19931;-60
2022/12/19 01:02:09;;;;;;;;;;;1.40;99.90;;;;;;5053337;28;19928;-63
2022/12/19 01:04:48;;;;;;;;;;;1.30;99.90;;;;;;5046773;28;19936;-63
2022/12/19 01:07:16;;;;;;;;;;;1.00;99.90;;;;;;5048165;28;19947;-62
2022/12/19 01:09:44;;;;;;;;;;;0.90;99.90;;;;;;5046003;28;19935;-63
2022/12/19 01:14:57;;;;;;;;;;;1.00;99.90;;;;;;5044748;28;19924;-63
2022/12/19 01:17:33;;;;;;;;;;;1.20;99.90;;;;;;5053098;28;20420;-63
2022/12/19 01:20:09;;;;;;;;;;;1.30;99.90;;;;;;5051378;28;20023;-62
2022/12/19 01:22:37;;;;;;;;;;;1.20;99.90;;;;;;5053648;28;19925;-63
2022/12/19 01:25:05;;;;;;;;;;;1.00;99.90;;;;;;5044985;28;20304;-63
2022/12/19 01:27:33;;;;;;;;;;;0.80;99.90;;;;;;5054444;28;20400;-63
2022/12/19 01:30:01;;;;;;;;;;;0.80;99.90;;;;;;5054095;28;19931;-63
2022/12/19 01:32:28;;;;;;;;;;;0.80;99.90;;;;;;5054440;28;19935;-63
2022/12/19 01:34:56;;;;;;;;;;;0.90;99.90;;;;;;5060407;28;19928;-64
2022/12/19 01:37:25;;;;;;;;;;;0.90;99.90;;;;;;5066245;28;19928;-63
2022/12/19 01:39:53;;;;;;;;;;;1.00;99.90;;;;;;5055944;28;20377;-62
2022/12/19 01:42:21;;;;;;;;;;;1.30;99.90;;;;;;5052416;28;19925;-63
2022/12/19 01:45:19;;;;;;;;;;;1.20;99.90;;;;;;5051158;28;20934;-63
2022/12/19 01:47:49;;;;;;;;;;;0.90;99.90;;;;;;5045689;28;19925;-63
2022/12/19 01:50:23;;;;;;;;;;;0.50;99.90;;;;;;5051547;28;19932;-63
2022/12/19 01:52:53;;;;;;;;;;;0.40;99.90;;;;;;5054020;28;19925;-63
2022/12/19 01:55:21;;;;;;;;;;;0.40;99.90;;;;;;5051659;28;19925;-63
2022/12/19 01:57:49;;;;;;;;;;;0.30;99.90;;;;;;5054202;28;19925;-63
2022/12/19 02:00:16;;;;;;;;;;;0.20;99.90;;;;;;5051255;28;19925;-63
2022/12/19 02:02:46;;;;;;;;;;;0.10;99.90;;;;;;5052270;28;19971;-63
2022/12/19 02:05:14;;;;;;;;;;;0.10;99.90;;;;;;5050796;28;19960;-63
2022/12/19 02:07:43;;;;;;;;;;;0.00;99.90;;;;;;5051627;28;20054;-63
2022/12/19 02:10:12;;;;;;;;;;;0.00;99.90;;;;;;5049228;28;20036;-63
2022/12/19 02:12:41;;;;;;;;;;;0.40;99.90;;;;;;5051417;28;19932;-63
2022/12/19 02:15:10;;;;;;;;;;;0.30;99.90;;;;;;5051719;28;19931;-63
2022/12/19 02:17:41;;;;;;;;;;;0.10;99.90;;;;;;5046175;28;19924;-63
2022/12/19 02:20:26;;;;;;;;;;;0.20;99.90;;;;;;5051315;28;19925;-63
2022/12/19 02:23:03;;;;;;;;;;;0.10;99.90;;;;;;5050707;28;19954;-63
2022/12/19 02:25:53;;;;;;;;;;;0.00;99.90;;;;;;5051101;28;20297;-62
2022/12/19 02:28:42;;;;;;;;;;;0.10;99.90;;;;;;5047874;28;20054;-63
2022/12/19 02:31:13;;;;;;;;;;;-0.10;99.90;;;;;;5045908;28;19925;-63
2022/12/19 02:33:45;;;;;;;;;;;0.30;99.90;;;;;;5051838;28;19925;-63
2022/12/19 02:36:16;;;;;;;;;;;0.40;99.90;;;;;;5048994;28;19983;-63
2022/12/19 02:38:48;;;;;;;;;;;0.10;99.90;;;;;;5050085;28;19939;-63
2022/12/19 02:41:20;;;;;;;;;;;0.20;99.90;;;;;;5051531;28;20039;-64
2022/12/19 02:43:49;;;;;;;;;;;0.50;99.90;;;;;;5050221;28;19925;-64
2022/12/19 02:46:28;;;;;;;;;;;0.70;99.90;;;;;;5049992;28;19979;-64
2022/12/19 02:48:56;;;;;;;;;;;0.90;99.90;;;;;;5051155;28;19932;-63
2022/12/19 02:51:24;;;;;;;;;;;0.70;99.90;;;;;;5048002;28;19931;-63
2022/12/19 02:53:51;;;;;;;;;;;0.30;99.90;;;;;;5051955;28;20447;-63
2022/12/19 02:56:24;;;;;;;;;;;0.20;99.90;;;;;;5052263;28;19925;-63
2022/12/19 02:58:59;;;;;;;;;;;0.40;99.90;;;;;;5033468;28;19925;-63
2022/12/19 03:01:36;;;;;;;;;;;0.60;99.90;;;;;;5032327;28;19925;-64
2022/12/19 03:04:08;;;;;;;;;;;0.70;99.90;;;;;;5034333;28;20365;-63
2022/12/19 03:06:40;;;;;;;;;;;0.80;99.90;;;;;;5045096;28;19936;-63
2022/12/19 03:09:13;;;;;;;;;;;0.80;99.90;;;;;;5048897;28;19929;-63
2022/12/19 03:11:41;;;;;;;;;;;1.10;99.90;;;;;;5044713;28;20401;-64
2022/12/19 03:14:11;;;;;;;;;;;1.30;99.90;;;;;;5048268;28;20025;-63
2022/12/19 03:16:40;;;;;;;;;;;1.20;99.90;;;;;;5050464;28;19924;-63
2022/12/19 03:19:09;;;;;;;;;;;1.00;99.90;;;;;;5050887;28;19964;-63
2022/12/19 03:21:38;;;;;;;;;;;1.00;99.90;;;;;;5046244;28;19932;-63
2022/12/19 03:24:07;;;;;;;;;;;1.20;99.90;;;;;;5049859;28;19935;-63
2022/12/19 03:26:37;;;;;;;;;;;1.50;99.90;;;;;;5051016;28;19932;-63
2022/12/19 03:29:08;;;;;;;;;;;1.40;99.90;;;;;;5050502;28;19925;-63
2022/12/19 03:31:37;;;;;;;;;;;1.40;99.90;;;;;;5048355;28;19974;-62
2022/12/19 03:34:10;;;;;;;;;;;1.30;99.90;;;;;;5049228;28;19928;-63
2022/12/19 03:36:40;;;;;;;;;;;1.20;99.90;;;;;;5049480;28;19956;-62
2022/12/19 03:39:09;;;;;;;;;;;1.30;99.90;;;;;;5051152;28;19924;-63
2022/12/19 03:44:25;;;;;;;;;;;1.20;99.90;;;;;;5049988;28;19950;-63
2022/12/19 03:46:58;;;;;;;;;;;1.10;99.90;;;;;;5049315;28;19928;-63
2022/12/19 03:49:27;;;;;;;;;;;1.30;99.90;;;;;;5050377;28;20325;-63
2022/12/19 03:51:59;;;;;;;;;;;1.20;99.90;;;;;;5048003;28;19925;-63
2022/12/19 03:54:28;;;;;;;;;;;1.50;99.90;;;;;;5049186;28;19924;-62
2022/12/19 03:56:59;;;;;;;;;;;1.50;99.90;;;;;;5049707;28;20386;-62
2022/12/19 03:59:31;;;;;;;;;;;1.70;99.90;;;;;;5049993;28;20016;-63
2022/12/19 04:01:59;;;;;;;;;;;1.70;99.90;;;;;;5048231;28;19925;-63
2022/12/19 04:04:30;;;;;;;;;;;1.80;99.90;;;;;;5051355;28;20356;-63
2022/12/19 04:06:58;;;;;;;;;;;1.70;99.90;;;;;;5061988;28;19930;-63
2022/12/19 04:09:26;;;;;;;;;;;1.60;99.90;;;;;;5052318;28;20451;-63
2022/12/19 04:11:55;;;;;;;;;;;1.50;99.90;;;;;;5047516;28;19929;-62
2022/12/19 04:14:26;;;;;;;;;;;1.60;99.90;;;;;;5050788;28;19932;-62
2022/12/19 04:16:57;;;;;;;;;;;1.80;99.90;;;;;;5050520;28;19925;-62
2022/12/19 04:19:29;;;;;;;;;;;2.00;99.90;;;;;;5049465;28;19932;-62
2022/12/19 04:22:01;;;;;;;;;;;2.00;99.90;;;;;;5047987;28;20019;-62
2022/12/19 04:24:33;;;;;;;;;;;2.00;99.90;;;;;;5050402;28;19931;-63
2022/12/19 04:27:02;;;;;;;;;;;2.10;99.90;;;;;;5048362;28;19928;-63
2022/12/19 04:29:31;;;;;;;;;;;2.00;99.90;;;;;;5049198;28;19924;-62
2022/12/19 04:31:59;;;;;;;;;;;1.90;99.90;;;;;;5047162;28;19932;-64
2022/12/19 04:34:27;;;;;;;;;;;2.00;99.90;;;;;;5048265;28;20393;-63
2022/12/19 04:36:55;;;;;;;;;;;1.80;99.90;;;;;;5050846;28;20301;-63
2022/12/19 04:39:24;;;;;;;;;;;1.80;99.90;;;;;;5050931;28;19925;-63
2022/12/19 04:41:52;;;;;;;;;;;1.70;99.90;;;;;;5050039;28;19929;-63
2022/12/19 04:44:20;;;;;;;;;;;1.70;99.90;;;;;;5048278;28;19935;-63
2022/12/19 04:46:48;;;;;;;;;;;1.80;99.90;;;;;;5049448;28;19924;-64
2022/12/19 04:49:16;;;;;;;;;;;1.90;99.90;;;;;;5049180;28;19963;-64
2022/12/19 04:51:43;;;;;;;;;;;1.80;99.90;;;;;;5048713;28;20011;-64
2022/12/19 04:54:11;;;;;;;;;;;1.80;99.90;;;;;;5047014;28;20374;-64
2022/12/19 04:56:40;;;;;;;;;;;1.90;99.90;;;;;;5049171;28;19935;-64
2022/12/19 04:59:08;;;;;;;;;;;1.70;99.90;;;;;;5050189;28;19925;-65
2022/12/19 05:01:36;;;;;;;;;;;1.40;99.90;;;;;;5049074;28;20316;-64
2022/12/19 05:04:04;;;;;;;;;;;1.60;99.90;;;;;;5047871;28;19952;-65
2022/12/19 05:06:31;;;;;;;;;;;1.80;99.90;;;;;;5045701;28;19943;-65
2022/12/19 05:08:59;;;;;;;;;;;2.00;99.90;;;;;;5049803;28;19924;-64
2022/12/19 05:11:27;;;;;;;;;;;1.80;99.90;;;;;;5046654;28;20012;-62
2022/12/19 05:13:57;;;;;;;;;;;2.00;99.90;;;;;;5047764;28;19939;-63
2022/12/19 05:16:25;;;;;;;;;;;1.90;99.90;;;;;;5047574;28;19924;-63
2022/12/19 05:18:53;;;;;;;;;;;2.20;99.90;;;;;;5048776;28;19929;-63
2022/12/19 05:21:21;;;;;;;;;;;2.40;99.90;;;;;;5049813;28;19953;-63
2022/12/19 05:23:49;;;;;;;;;;;2.30;99.90;;;;;;5050598;28;19964;-64
2022/12/19 05:26:17;;;;;;;;;;;2.10;99.90;;;;;;5050720;28;19929;-63
2022/12/19 05:28:44;;;;;;;;;;;2.20;99.90;;;;;;5049930;28;21443;-63
2022/12/19 05:31:14;;;;;;;;;;;2.30;99.90;;;;;;5046406;28;20027;-63
2022/12/19 05:33:42;;;;;;;;;;;2.40;99.90;;;;;;5048766;28;20000;-63
2022/12/19 05:36:11;;;;;;;;;;;2.50;99.90;;;;;;5044629;28;19929;-63
2022/12/19 05:38:38;;;;;;;;;;;2.60;99.90;;;;;;5048571;28;19947;-63
2022/12/19 05:41:07;;;;;;;;;;;2.30;99.90;;;;;;5046526;28;19940;-63
2022/12/19 05:43:35;;;;;;;;;;;2.00;99.90;;;;;;5047800;28;20456;-62
2022/12/19 05:46:04;;;;;;;;;;;1.70;99.90;;;;;;5051632;28;19925;-63
2022/12/19 05:48:33;;;;;;;;;;;1.50;99.90;;;;;;5054694;28;19928;-63
2022/12/19 05:51:01;;;;;;;;;;;1.30;99.90;;;;;;5051177;28;19925;-63
2022/12/19 05:53:28;;;;;;;;;;;1.10;99.90;;;;;;5052032;28;19931;-63
2022/12/19 05:56:02;;;;;;;;;;;1.10;99.90;;;;;;5051460;28;20015;-63
2022/12/19 05:58:30;;;;;;;;;;;1.00;99.90;;;;;;5052009;28;20390;-62
2022/12/19 06:01:01;;;;;;;;;;;0.80;99.90;;;;;;5049691;28;20344;-62
2022/12/19 06:03:29;;;;;;;;;;;0.80;99.90;;;;;;5050114;28;20429;-63
2022/12/19 06:05:58;;;;;;;;;;;0.70;99.90;;;;;;5046902;28;19925;-62
2022/12/19 06:08:25;;;;;;;;;;;0.60;99.90;;;;;;5050777;28;19932;-63
2022/12/19 06:10:53;;;;;;;;;;;0.50;99.90;;;;;;5048330;28;20305;-62
2022/12/19 06:13:21;;;;;;;;;;;0.40;99.90;;;;;;5049486;28;19955;-63
2022/12/19 06:15:56;;;;;;;;;;;0.40;99.90;;;;;;5047384;28;19959;-63
2022/12/19 06:18:24;;;;;;;;;;;0.40;99.90;;;;;;5046941;28;19924;-62
2022/12/19 06:20:55;;;;;;;;;;;0.50;99.90;;;;;;5046189;28;19931;-63
2022/12/19 06:23:24;;;;;;;;;;;0.50;99.90;;;;;;5049120;28;20047;-62
2022/12/19 06:25:52;;;;;;;;;;;0.50;99.90;;;;;;5064222;22;20257;-62
2022/12/19 06:28:20;;;;;;;;;;;0.50;99.90;;;;;;5051578;28;19931;-62
2022/12/19 06:30:48;;;;;;;;;;;0.40;99.90;;;;;;5050971;28;19951;-62
2022/12/19 06:33:16;;;;;;;;;;;0.40;99.90;;;;;;5047314;28;19931;-62
2022/12/19 06:35:43;;;;;;;;;;;0.40;99.90;;;;;;5050364;28;19933;-62
2022/12/19 06:38:11;;;;;;;;;;;0.40;99.90;;;;;;5050073;28;19925;-62
2022/12/19 06:43:27;;;;;;;;;;;0.40;99.90;;;;;;5050743;28;19952;-63
2022/12/19 06:45:56;;;;;;;;;;;0.50;99.90;;;;;;5048639;28;20453;-62
2022/12/19 06:48:24;;;;;;;;;;;0.50;99.90;;;;;;5050220;28;19944;-62
2022/12/19 06:50:52;;;;;;;;;;;0.40;99.90;;;;;;5049676;28;19928;-62
2022/12/19 06:53:20;;;;;;;;;;;0.40;99.90;;;;;;5050523;28;19935;-63
2022/12/19 06:55:50;;;;;;;;;;;0.40;99.90;;;;;;5047640;28;19983;-62
2022/12/19 06:58:17;;;;;;;;;;;0.40;99.90;;;;;;5048285;28;20024;-62
2022/12/19 07:00:51;;;;;;;;;;;0.40;99.90;;;;;;5046209;28;19931;-63
2022/12/19 07:03:21;;;;;;;;;;;0.40;99.90;;;;;;5050368;28;20390;-62
2022/12/19 07:05:49;;;;;;;;;;;0.40;99.90;;;;;;5046726;28;20023;-62
2022/12/19 07:08:17;;;;;;;;;;;0.40;99.90;;;;;;5049955;28;19925;-62
2022/12/19 07:10:45;;;;;;;;;;;0.40;99.90;;;;;;5050079;28;19978;-62
2022/12/19 07:13:14;;;;;;;;;;;0.50;99.90;;;;;;5051051;28;19936;-62
2022/12/19 07:15:42;;;;;;;;;;;0.40;99.90;;;;;;5049024;28;19991;-63
2022/12/19 07:18:10;;;;;;;;;;;0.40;99.90;;;;;;5050203;28;19925;-63
2022/12/19 07:20:40;;;;;;;;;;;0.50;99.90;;;;;;5043228;28;19929;-63
2022/12/19 07:23:14;;;;;;;;;;;0.50;99.90;;;;;;5052829;28;19932;-63
2022/12/19 07:25:42;;;;;;;;;;;0.50;99.90;;;;;;5052073;28;19925;-63
2022/12/19 07:28:09;;;;;;;;;;;0.40;99.90;;;;;;5051960;28;19924;-62
2022/12/19 07:30:39;;;;;;;;;;;0.40;99.90;;;;;;5051750;28;19928;-62
2022/12/19 07:33:06;;;;;;;;;;;0.40;99.90;;;;;;5052437;28;19936;-62
2022/12/19 07:35:38;;;;;;;;;;;0.30;99.90;;;;;;5051727;28;19980;-62
2022/12/19 07:38:06;;;;;;;;;;;0.30;99.90;;;;;;5052139;28;20366;-62
2022/12/19 07:40:35;;;;;;;;;;;0.30;99.90;;;;;;5051471;28;19938;-62
2022/12/19 07:43:03;;;;;;;;;;;0.20;99.90;;;;;;5051654;28;19924;-63
2022/12/19 07:45:30;;;;;;;;;;;0.20;99.90;;;;;;5051878;28;19924;-63
2022/12/19 07:48:00;;;;;;;;;;;0.30;99.90;;;;;;5052234;28;19925;-62
2022/12/19 07:50:29;;;;;;;;;;;0.30;99.90;;;;;;5051325;28;20011;-63
2022/12/19 07:52:57;;;;;;;;;;;0.40;99.90;;;;;;5051985;28;20406;-62
2022/12/19 07:55:25;;;;;;;;;;;0.40;99.90;;;;;;5051639;28;20020;-63
2022/12/19 07:57:54;;;;;;;;;;;0.50;99.90;;;;;;5051612;28;19925;-63
2022/12/19 08:00:22;;;;;;;;;;;0.50;99.90;;;;;;5051303;28;19925;-63
2022/12/19 08:02:49;;;;;;;;;;;0.50;99.90;;;;;;5051974;28;19924;-62
2022/12/19 08:05:19;;;;;;;;;;;0.50;99.90;;;;;;5051446;28;19958;-63
2022/12/19 08:07:46;;;;;;;;;;;0.50;99.90;;;;;;5051133;28;20024;-63
2022/12/19 08:10:14;;;;;;;;;;;0.50;99.90;;;;;;5051040;28;20027;-63
2022/12/19 08:12:42;;;;;;;;;;;0.60;99.90;;;;;;5051810;28;20371;-63
2022/12/19 08:15:10;;;;;;;;;;;0.60;99.90;;;;;;5051099;28;19967;-62
2022/12/19 08:17:38;;;;;;;;;;;0.70;99.90;;;;;;5051657;28;20374;-62
2022/12/19 08:20:07;;;;;;;;;;;0.70;99.90;;;;;;5050485;28;19925;-62
2022/12/19 08:22:36;;;;;;;;;;;0.70;99.90;;;;;;5051554;28;20019;-63
2022/12/19 08:25:06;;;;;;;;;;;0.70;99.90;;;;;;5051375;28;19925;-62
2022/12/19 08:27:34;;;;;;;;;;;0.70;99.90;;;;;;5051353;28;20047;-62
2022/12/19 08:30:02;;;;;;;;;;;0.70;99.90;;;;;;5050684;28;19931;-63
2022/12/19 08:32:30;;;;;;;;;;;0.60;99.90;;;;;;5051569;28;20015;-62
2022/12/19 08:34:57;;;;;;;;;;;0.60;99.90;;;;;;5050897;28;19924;-63
2022/12/19 08:37:25;;;;;;;;;;;0.60;99.90;;;;;;5051117;28;19968;-62
2022/12/19 08:39:54;;;;;;;;;;;0.60;99.90;;;;;;5050476;28;19931;-63
2022/12/19 08:42:22;;;;;;;;;;;0.60;99.90;;;;;;5051253;28;19924;-62
2022/12/19 08:44:49;;;;;;;;;;;0.50;99.90;;;;;;5050919;28;20386;-62
2022/12/19 08:47:17;;;;;;;;;;;0.60;99.90;;;;;;5050679;28;20020;-63
2022/12/19 08:49:45;;;;;;;;;;;0.60;99.90;;;;;;5050389;28;20015;-63
2022/12/19 08:52:13;;;;;;;;;;;0.80;99.90;;;;;;5051284;28;20058;-62
2022/12/19 08:54:40;;;;;;;;;;;0.70;99.90;;;;;;5051091;28;19925;-63
2022/12/19 08:57:09;;;;;;;;;;;0.70;99.90;;;;;;5051144;28;20023;-62
2022/12/19 08:59:37;;;;;;;;;;;0.80;99.90;;;;;;5050467;28;20336;-63
2022/12/19 09:02:06;;;;;;;;;;;0.70;99.90;;;;;;5050758;28;19987;-63
2022/12/19 09:04:34;;;;;;;;;;;0.80;99.90;;;;;;5050118;28;20023;-63
2022/12/19 09:07:21;;;;;;;;;;;0.80;99.90;;;;;;5048886;28;19931;-62
2022/12/19 09:09:49;;;;;;;;;;;0.90;99.90;;;;;;5050346;28;19931;-63
2022/12/19 09:12:18;;;;;;;;;;;0.90;99.90;;;;;;5051004;28;19979;-63
2022/12/19 09:14:46;;;;;;;;;;;0.90;99.90;;;;;;5051107;28;20362;-63
2022/12/19 09:17:14;;;;;;;;;;;0.80;99.90;;;;;;5051349;28;20035;-62
2022/12/19 09:19:43;;;;;;;;;;;0.80;99.90;;;;;;5051915;28;19925;-62
2022/12/19 09:22:14;;;;;;;;;;;0.80;99.90;;;;;;5055033;28;19928;-62
2022/12/19 09:24:42;;;;;;;;;;;0.80;99.90;;;;;;5054483;28;20020;-63
2022/12/19 09:27:10;;;;;;;;;;;0.80;99.90;;;;;;5053270;28;20334;-63
2022/12/19 09:29:39;;;;;;;;;;;0.90;99.90;;;;;;5053918;28;19924;-63
2022/12/19 09:32:07;;;;;;;;;;;0.90;99.90;;;;;;5054807;28;20461;-63
2022/12/19 09:34:35;;;;;;;;;;;0.90;99.90;;;;;;5054258;28;20023;-63
2022/12/19 09:37:06;;;;;;;;;;;0.80;99.90;;;;;;5054426;28;19925;-63
2022/12/19 09:39:35;;;;;;;;;;;0.80;99.90;;;;;;5053848;28;19929;-63
2022/12/19 09:42:10;;;;;;;;;;;0.80;99.90;;;;;;5053568;28;20350;-63
2022/12/19 09:44:48;;;;;;;;;;;0.80;99.90;;;;;;5054491;28;20035;-63
2022/12/19 09:47:17;;;;;;;;;;;0.90;99.90;;;;;;5054486;28;19947;-63
2022/12/19 09:49:46;;;;;;;;;;;0.90;99.90;;;;;;5053350;28;19936;-63
2022/12/19 09:52:15;;;;;;;;;;;0.90;99.90;;;;;;5054549;28;19975;-62
2022/12/19 09:54:46;;;;;;;;;;;1.00;99.90;;;;;;5054081;28;20039;-63
2022/12/19 09:57:15;;;;;;;;;;;1.00;99.90;;;;;;5054230;28;19925;-63
2022/12/19 09:59:46;;;;;;;;;;;1.00;99.90;;;;;;5051032;28;20425;-63
2022/12/19 10:02:25;;;;;;;;;;;1.10;99.90;;;;;;5050761;28;19925;-63
2022/12/19 10:04:57;;;;;;;;;;;1.20;99.90;;;;;;5053811;28;20023;-63
2022/12/19 10:07:45;;;;;;;;;;;1.30;99.90;;;;;;5046477;28;20410;-63
2022/12/19 10:10:42;;;;;;;;;;;1.40;99.90;;;;;;5053064;28;19924;-63
2022/12/19 10:13:36;;;;;;;;;;;1.50;99.90;;;;;;5053731;28;19932;-63
2022/12/19 10:16:10;;;;;;;;;;;1.50;99.90;;;;;;5053287;28;19929;-63
2022/12/19 10:18:44;;;;;;;;;;;1.60;99.90;;;;;;5053958;28;19925;-63
2022/12/19 10:21:24;;;;;;;;;;;1.60;99.90;;;;;;5053098;28;19924;-62
2022/12/19 10:24:23;;;;;;;;;;;1.60;99.90;;;;;;5053814;28;19929;-62
2022/12/19 10:26:51;;;;;;;;;;;1.60;99.90;;;;;;5053292;28;19950;-62
2022/12/19 10:29:37;;;;;;;;;;;1.60;99.90;;;;;;5053341;28;19972;-62
2022/12/19 10:32:11;;;;;;;;;;;1.60;99.90;;;;;;5040391;28;19929;-62
2022/12/19 10:34:41;;;;;;;;;;;1.70;99.90;;;;;;5040051;28;20644;-62
2022/12/19 10:37:12;;;;;;;;;;;1.60;99.90;;;;;;5052794;28;19925;-62
2022/12/19 10:40:00;;;;;;;;;;;1.60;99.90;;;;;;5047204;28;20024;-63
2022/12/19 10:42:32;;;;;;;;;;;1.70;99.90;;;;;;5053530;28;19925;-63
2022/12/19 10:45:03;;;;;;;;;;;1.70;99.90;;;;;;5053325;28;20605;-63
2022/12/19 10:47:32;;;;;;;;;;;1.70;99.90;;;;;;5053709;28;19990;-62
2022/12/19 10:49:59;;;;;;;;;;;1.70;99.90;;;;;;5052339;28;19925;-63
2022/12/19 10:52:51;;;;;;;;;;;1.70;99.90;;;;;;5053837;28;19929;-62
2022/12/19 10:55:38;;;;;;;;;;;1.70;99.90;;;;;;5054687;28;20408;-63
2022/12/19 10:58:11;;;;;;;;;;;1.70;99.90;;;;;;5053618;28;20027;-62
2022/12/19 11:00:45;;;;;;;;;;;1.70;99.90;;;;;;5052633;28;19947;-62
2022/12/19 11:03:15;;;;;;;;;;;1.60;99.90;;;;;;5053050;28;20340;-63
2022/12/19 11:05:48;;;;;;;;;;;1.60;99.90;;;;;;5052377;28;19924;-63
2022/12/19 11:08:25;;;;;;;;;;;1.50;99.90;;;;;;5052939;28;19924;-62
2022/12/19 11:10:54;;;;;;;;;;;1.40;99.90;;;;;;5052199;28;19929;-62
2022/12/19 11:13:44;;;;;;;;;;;1.50;99.90;;;;;;5052923;28;19980;-62
2022/12/19 11:16:34;;;;;;;;;;;1.50;99.90;;;;;;5053039;28;19925;-62
2022/12/19 11:19:26;;;;;;;;;;;1.40;99.90;;;;;;5052661;28;19925;-62
2022/12/19 11:22:16;;;;;;;;;;;1.40;99.90;;;;;;5052620;28;19925;-62
2022/12/19 11:25:04;;;;;;;;;;;1.40;99.90;;;;;;5032765;28;20030;-62
2022/12/19 11:27:52;;;;;;;;;;;1.50;99.90;;;;;;5049394;28;19925;-62
2022/12/19 11:30:40;;;;;;;;;;;1.60;99.90;;;;;;5031936;28;19925;-62
2022/12/19 11:33:28;;;;;;;;;;;1.50;99.90;;;;;;5032264;28;19940;-62
2022/12/19 11:35:58;;;;;;;;;;;1.50;99.90;;;;;;5044492;28;20373;-62
2022/12/19 11:38:32;;;;;;;;;;;1.50;99.90;;;;;;5052137;28;19944;-62
2022/12/19 11:41:02;;;;;;;;;;;1.60;99.90;;;;;;5050820;28;19995;-62
2022/12/19 11:43:33;;;;;;;;;;;1.60;99.90;;;;;;5052074;28;20015;-62
2022/12/19 11:46:17;;;;;;;;;;;1.50;99.90;;;;;;5052030;28;19979;-62
2022/12/19 11:48:52;;;;;;;;;;;1.50;99.90;;;;;;5052274;28;20177;-62
2022/12/19 11:51:25;;;;;;;;;;;1.40;99.90;;;;;;5051251;28;20012;-62
2022/12/19 11:53:59;;;;;;;;;;;1.50;99.90;;;;;;5052054;28;20378;-62
2022/12/19 11:56:28;;;;;;;;;;;1.50;99.90;;;;;;5051881;28;19986;-62
2022/12/19 11:58:57;;;;;;;;;;;1.50;99.90;;;;;;5051719;28;19928;-62
2022/12/19 12:01:44;;;;;;;;;;;1.50;99.90;;;;;;5051062;28;19925;-62
2022/12/19 12:04:17;;;;;;;;;;;1.50;99.90;;;;;;5051939;28;19935;-62
2022/12/19 12:06:49;;;;;;;;;;;1.50;99.90;;;;;;5051205;28;19979;-62
2022/12/19 12:09:19;;;;;;;;;;;1.40;99.90;;;;;;5051973;28;19928;-62
2022/12/19 12:12:14;;;;;;;;;;;1.50;99.90;;;;;;5051934;28;19936;-63
2022/12/19 12:15:09;;;;;;;;;;;1.60;99.90;;;;;;5051446;28;19947;-63
2022/12/19 12:18:01;;;;;;;;;;;1.70;99.90;;;;;;5051793;28;20648;-63
2022/12/19 12:20:51;;;;;;;;;;;1.70;99.90;;;;;;5050592;28;19963;-63
2022/12/19 12:23:47;;;;;;;;;;;1.80;99.90;;;;;;5051697;28;19931;-63
2022/12/19 12:26:37;;;;;;;;;;;1.80;99.90;;;;;;5061478;22;20383;-63
2022/12/19 12:29:26;;;;;;;;;;;1.90;99.90;;;;;;5011562;28;20402;-63
2022/12/19 12:32:20;;;;;;;;;;;1.90;99.90;;;;;;5011680;28;20395;-63
2022/12/19 12:35:15;;;;;;;;;;;1.90;99.90;;;;;;5011692;28;19932;-63
2022/12/19 12:38:15;;;;;;;;;;;1.90;99.90;;;;;;5011492;28;19925;-63
2022/12/19 12:40:58;;;;;;;;;;;2.00;99.90;;;;;;5011286;28;20321;-63
2022/12/19 12:43:37;;;;;;;;;;;1.90;99.90;;;;;;5011894;28;20024;-63
2022/12/19 12:46:09;;;;;;;;;;;2.00;99.90;;;;;;5011312;28;19925;-62
2022/12/19 12:48:38;;;;;;;;;;;2.00;99.90;;;;;;5011568;28;19936;-63
2022/12/19 12:51:06;;;;;;;;;;;2.00;99.90;;;;;;5010754;28;20028;-63
2022/12/19 12:53:37;;;;;;;;;;;2.00;99.90;;;;;;5013814;28;19979;-63
2022/12/19 12:56:07;;;;;;;;;;;2.00;99.90;;;;;;5015742;28;19968;-63
2022/12/19 12:59:01;;;;;;;;;;;2.00;99.90;;;;;;5015616;28;20020;-63
2022/12/19 13:01:33;;;;;;;;;;;2.00;99.90;;;;;;5014293;28;19933;-63
2022/12/19 13:04:03;;;;;;;;;;;2.00;99.90;;;;;;5015819;28;19925;-62
2022/12/19 13:06:32;;;;;;;;;;;1.90;99.90;;;;;;5015205;28;19980;-63
2022/12/19 13:09:02;;;;;;;;;;;1.90;99.90;;;;;;5015652;28;20408;-62
2022/12/19 13:14:44;;;;;;;;;;;1.90;99.90;;;;;;5015702;28;19931;-63
2022/12/19 13:17:12;;;;;;;;;;;1.90;99.90;;;;;;4995891;28;19961;-62
2022/12/19 13:19:52;;;;;;;;;;;2.00;99.90;;;;;;4995029;28;19933;-63
2022/12/19 13:22:21;;;;;;;;;;;2.00;99.90;;;;;;4995615;28;20030;-63
2022/12/19 13:24:50;;;;;;;;;;;2.10;99.90;;;;;;4995735;28;20417;-63
2022/12/19 13:27:36;;;;;;;;;;;2.10;99.90;;;;;;4994902;28;20343;-63
2022/12/19 13:30:16;;;;;;;;;;;2.20;99.90;;;;;;4997380;28;19932;-63
2022/12/19 13:33:02;;;;;;;;;;;2.20;99.90;;;;;;5014978;28;20410;-63
2022/12/19 13:35:32;;;;;;;;;;;2.20;99.90;;;;;;5014854;28;20370;-63
2022/12/19 13:38:20;;;;;;;;;;;2.30;99.90;;;;;;5014676;28;19926;-62
2022/12/19 13:44:10;;;;;;;;;;;2.30;99.90;;;;;;5014994;28;19932;-63
2022/12/19 13:46:41;;;;;;;;;;;2.30;99.90;;;;;;5013790;28;19925;-63
2022/12/19 13:49:13;;;;;;;;;;;2.30;99.90;;;;;;5014508;28;20345;-63
2022/12/19 13:51:43;;;;;;;;;;;2.20;99.90;;;;;;5013271;28;19925;-62
2022/12/19 13:54:21;;;;;;;;;;;2.10;99.90;;;;;;5014252;28;19929;-63
2022/12/19 13:56:49;;;;;;;;;;;2.10;99.90;;;;;;5014344;28;19930;-63
2022/12/19 13:59:17;;;;;;;;;;;2.10;99.90;;;;;;5014912;28;20284;-63
2022/12/19 14:01:46;;;;;;;;;;;2.10;99.90;;;;;;5013501;28;19979;-63
2022/12/19 14:04:24;;;;;;;;;;;2.10;99.90;;;;;;5013896;28;19933;-63
2022/12/19 14:06:55;;;;;;;;;;;2.00;99.90;;;;;;5007842;28;19925;-63
2022/12/19 14:09:27;;;;;;;;;;;2.10;99.90;;;;;;5013876;28;19926;-63
2022/12/19 14:15:12;;;;;;;;;;;2.10;99.90;;;;;;5014234;28;19925;-63
2022/12/19 14:15:27;;;;;;;;;;;2.20;99.90;;;;;;5014209;28;19925;-63
2022/12/19 14:17:58;;;;;;;;;;;2.20;99.90;;;;;;5014030;28;19933;-62
2022/12/19 14:20:46;;;;;;;;;;;2.20;99.90;;;;;;5007016;28;19929;-63
2022/12/19 14:23:34;;;;;;;;;;;2.20;99.90;;;;;;5014160;28;19933;-63
2022/12/19 14:26:12;;;;;;;;;;;2.30;99.90;;;;;;5013892;28;20025;-63
2022/12/19 14:29:01;;;;;;;;;;;2.40;99.90;;;;;;5013723;28;19929;-63
2022/12/19 14:31:31;;;;;;;;;;;2.40;99.90;;;;;;5013339;28;19930;-63
2022/12/19 14:34:01;;;;;;;;;;;2.40;99.90;;;;;;5013650;28;19934;-63
2022/12/19 14:36:51;;;;;;;;;;;2.40;99.90;;;;;;5013300;28;19962;-63
2022/12/19 14:39:20;;;;;;;;;;;2.50;99.90;;;;;;5013338;28;19987;-63
2022/12/19 14:45:21;;;;;;;;;;;2.60;99.90;;;;;;5013743;28;19929;-63
2022/12/19 14:48:25;;;;;;;;;;;2.60;99.90;;;;;;5013599;28;19929;-63
2022/12/19 14:51:14;;;;;;;;;;;2.50;99.90;;;;;;5012829;28;19933;-62
2022/12/19 14:54:04;;;;;;;;;;;2.50;99.90;;;;;;5012900;28;19936;-63
2022/12/19 14:56:53;;;;;;;;;;;2.60;99.90;;;;;;5013281;28;20386;-63
2022/12/19 14:59:29;;;;;;;;;;;2.60;99.90;;;;;;5013261;28;20001;-62
2022/12/19 15:01:59;;;;;;;;;;;2.60;99.90;;;;;;5012987;28;19925;-63
2022/12/19 15:04:30;;;;;;;;;;;2.60;99.90;;;;;;5013216;28;19937;-63
2022/12/19 15:07:20;;;;;;;;;;;2.60;99.90;;;;;;5012910;28;19989;-63
2022/12/19 15:09:54;;;;;;;;;;;2.60;99.90;;;;;;5012391;28;19984;-63
2022/12/19 15:15:53;;;;;;;;;;;2.50;99.90;;;;;;5012448;28;19937;-63
2022/12/19 15:18:24;;;;;;;;;;;2.50;99.90;;;;;;5012378;28;19926;-63
2022/12/19 15:20:52;;;;;;;;;;;2.50;99.90;;;;;;5012105;28;19952;-63
2022/12/19 15:23:21;;;;;;;;;;;2.50;99.90;;;;;;5012877;28;19988;-63